<?xml version='1.0' encoding='UTF-8'?>
<gpx xmlns="http://www.topografix.com/GPX/1/1" creator="www.balnam.be" version="1.1" xmlns:xsi="http://www.w3.org/2001/XMLSchema-instance" xsi:schemaLocation="http://www.topografix.com/GPX/1/1 http://www.topografix.com/GPX/1/1/gpx.xsd">
<trk>
<name>xnflg83</name>
<cmt>v</cmt>
<desc>Longlier Chemin n°83 </desc>
<link href="https://chemins.be/longlier/chemin/83"/><trkseg>
<trkpt lat="49.887824" lon="5.473748"><time>2026-05-03T00:07:36Z</time></trkpt>
<trkpt lat="49.887928" lon="5.473951"><time>2026-05-03T00:17:36Z</time></trkpt>
<trkpt lat="49.888176" lon="5.474341"><time>2026-05-03T00:27:36Z</time></trkpt>
<trkpt lat="49.888692" lon="5.475008"><time>2026-05-03T00:37:36Z</time></trkpt>
<trkpt lat="49.889284" lon="5.475897"><time>2026-05-03T00:47:36Z</time></trkpt>
<trkpt lat="49.889709" lon="5.476765"><time>2026-05-03T00:57:36Z</time></trkpt>
<trkpt lat="49.890439" lon="5.477911"><time>2026-05-03T01:07:36Z</time></trkpt>
<trkpt lat="49.890758" lon="5.478458"><time>2026-05-03T01:17:36Z</time></trkpt>
<trkpt lat="49.890991" lon="5.478803"><time>2026-05-03T01:27:36Z</time></trkpt>
<trkpt lat="49.891779" lon="5.480253"><time>2026-05-03T01:37:36Z</time></trkpt>
<trkpt lat="49.892246" lon="5.481018"><time>2026-05-03T01:47:36Z</time></trkpt>
<trkpt lat="49.892983" lon="5.481916"><time>2026-05-03T01:57:36Z</time></trkpt>
<trkpt lat="49.893190" lon="5.482132"><time>2026-05-03T02:07:36Z</time></trkpt>
<trkpt lat="49.893704" lon="5.482756"><time>2026-05-03T02:17:36Z</time></trkpt>
<trkpt lat="49.893858" lon="5.482968"><time>2026-05-03T02:27:36Z</time></trkpt>
<trkpt lat="49.893991" lon="5.483106"><time>2026-05-03T02:37:36Z</time></trkpt>
<trkpt lat="49.894541" lon="5.483438"><time>2026-05-03T02:47:36Z</time></trkpt>
<trkpt lat="49.894786" lon="5.483563"><time>2026-05-03T02:57:36Z</time></trkpt>
<trkpt lat="49.894969" lon="5.483617"><time>2026-05-03T03:07:36Z</time></trkpt>
<trkpt lat="49.895181" lon="5.483715"><time>2026-05-03T03:17:36Z</time></trkpt>
<trkpt lat="49.895480" lon="5.483995"><time>2026-05-03T03:27:36Z</time></trkpt>
<trkpt lat="49.895648" lon="5.484122"><time>2026-05-03T03:37:36Z</time></trkpt>
<trkpt lat="49.896294" lon="5.484514"><time>2026-05-03T03:47:36Z</time></trkpt>
<trkpt lat="49.896849" lon="5.484936"><time>2026-05-03T03:57:36Z</time></trkpt>
<trkpt lat="49.897212" lon="5.485362"><time>2026-05-03T04:07:36Z</time></trkpt>
<trkpt lat="49.897283" lon="5.485415"><time>2026-05-03T04:17:36Z</time></trkpt>
<trkpt lat="49.897580" lon="5.485536"><time>2026-05-03T04:27:36Z</time></trkpt>
<trkpt lat="49.897651" lon="5.485616"><time>2026-05-03T04:37:36Z</time></trkpt>
<trkpt lat="49.897760" lon="5.485848"><time>2026-05-03T04:47:36Z</time></trkpt>
<trkpt lat="49.897870" lon="5.485947"><time>2026-05-03T04:57:36Z</time></trkpt>
<trkpt lat="49.898286" lon="5.485892"><time>2026-05-03T05:07:36Z</time></trkpt>
<trkpt lat="49.898417" lon="5.485911"><time>2026-05-03T05:17:36Z</time></trkpt>
<trkpt lat="49.898517" lon="5.485969"><time>2026-05-03T05:27:36Z</time></trkpt>
<trkpt lat="49.898837" lon="5.486295"><time>2026-05-03T05:37:36Z</time></trkpt>
<trkpt lat="49.898979" lon="5.486408"><time>2026-05-03T05:47:36Z</time></trkpt>
<trkpt lat="49.899081" lon="5.486453"><time>2026-05-03T05:57:36Z</time></trkpt>
<trkpt lat="49.899691" lon="5.486553"><time>2026-05-03T06:07:36Z</time></trkpt>
<trkpt lat="49.900305" lon="5.486822"><time>2026-05-03T06:17:36Z</time></trkpt>
<trkpt lat="49.900642" lon="5.487031"><time>2026-05-03T06:27:36Z</time></trkpt>
<trkpt lat="49.901105" lon="5.487103"><time>2026-05-03T06:37:36Z</time></trkpt>
<trkpt lat="49.901210" lon="5.487094"><time>2026-05-03T06:47:36Z</time></trkpt>
<trkpt lat="49.901569" lon="5.486931"><time>2026-05-03T06:57:36Z</time></trkpt>
<trkpt lat="49.901719" lon="5.486902"><time>2026-05-03T07:07:36Z</time></trkpt>
<trkpt lat="49.902055" lon="5.486834"><time>2026-05-03T07:17:36Z</time></trkpt>
<trkpt lat="49.902718" lon="5.486995"><time>2026-05-03T07:27:36Z</time></trkpt>
</trkseg>
</trk>
</gpx>